sensor_id;sensor_type;location;lat;lon;timestamp;pressure;altitude;pressure_sealevel;temperature;humidity
69257;BME280;56376;53.356;-1.748;2023-04-27T00:00:22;99766.41;;;3.82;87.50
69257;BME280;56376;53.356;-1.748;2023-04-27T00:02:47;99777.63;;;3.84;87.30
69257;BME280;56376;53.356;-1.748;2023-04-27T00:05:12;99771.59;;;3.79;87.23
69257;BME280;56376;53.356;-1.748;2023-04-27T00:07:38;99772.47;;;3.75;87.48
69257;BME280;56376;53.356;-1.748;2023-04-27T00:10:03;99782.84;;;3.74;87.65
69257;BME280;56376;53.356;-1.748;2023-04-27T00:12:29;99775.94;;;3.73;87.48
69257;BME280;56376;53.356;-1.748;2023-04-27T00:14:54;99776.84;;;3.68;87.66
69257;BME280;56376;53.356;-1.748;2023-04-27T00:17:20;99782.88;;;3.66;88.04
69257;BME280;56376;53.356;-1.748;2023-04-27T00:19:45;99773.41;;;3.63;88.21
69257;BME280;56376;53.356;-1.748;2023-04-27T00:22:11;99761.38;;;3.61;88.46
69257;BME280;56376;53.356;-1.748;2023-04-27T00:24:38;99769.13;;;3.55;88.37
69257;BME280;56376;53.356;-1.748;2023-04-27T00:27:03;99757.97;;;3.51;88.64
69257;BME280;56376;53.356;-1.748;2023-04-27T00:29:29;99754.53;;;3.49;88.95
69257;BME280;56376;53.356;-1.748;2023-04-27T00:31:54;99749.38;;;3.44;89.01
69257;BME280;56376;53.356;-1.748;2023-04-27T00:34:20;99747.66;;;3.43;89.31
69257;BME280;56376;53.356;-1.748;2023-04-27T00:36:45;99739.91;;;3.42;89.43
69257;BME280;56376;53.356;-1.748;2023-04-27T00:39:10;99721.88;;;3.34;90.02
69257;BME280;56376;53.356;-1.748;2023-04-27T00:41:36;99734.75;;;3.37;90.41
69257;BME280;56376;53.356;-1.748;2023-04-27T00:44:03;99729.59;;;3.34;90.56
69257;BME280;56376;53.356;-1.748;2023-04-27T00:46:29;99731.34;;;3.35;90.61
69257;BME280;56376;53.356;-1.748;2023-04-27T00:48:55;99733.91;;;3.37;91.40
69257;BME280;56376;53.356;-1.748;2023-04-27T00:51:21;99727.88;;;3.36;91.67
69257;BME280;56376;53.356;-1.748;2023-04-27T00:53:47;99734.78;;;3.34;91.60
69257;BME280;56376;53.356;-1.748;2023-04-27T00:56:16;99726.16;;;3.32;91.98
69257;BME280;56376;53.356;-1.748;2023-04-27T00:58:41;99736.50;;;3.32;92.62
69257;BME280;56376;53.356;-1.748;2023-04-27T01:01:08;99731.34;;;3.32;92.64
69257;BME280;56376;53.356;-1.748;2023-04-27T01:03:34;99720.16;;;3.27;92.51
69257;BME280;56376;53.356;-1.748;2023-04-27T01:05:59;99726.19;;;3.24;93.03
69257;BME280;56376;53.356;-1.748;2023-04-27T01:08:27;99722.75;;;3.22;93.05
69257;BME280;56376;53.356;-1.748;2023-04-27T01:10:52;99710.75;;;3.17;93.20
69257;BME280;56376;53.356;-1.748;2023-04-27T01:13:17;99719.34;;;3.20;92.63
69257;BME280;56376;53.356;-1.748;2023-04-27T01:15:43;99708.13;;;3.20;92.31
69257;BME280;56376;53.356;-1.748;2023-04-27T01:18:08;99708.16;;;3.17;92.57
69257;BME280;56376;53.356;-1.748;2023-04-27T01:20:34;99705.59;;;3.14;92.51
69257;BME280;56376;53.356;-1.748;2023-04-27T01:23:00;99705.63;;;3.08;92.40
69257;BME280;56376;53.356;-1.748;2023-04-27T01:25:26;99712.47;;;3.07;92.95
69257;BME280;56376;53.356;-1.748;2023-04-27T01:27:51;99709.91;;;3.04;92.56
69257;BME280;56376;53.356;-1.748;2023-04-27T01:30:18;99711.63;;;3.02;92.53
69257;BME280;56376;53.356;-1.748;2023-04-27T01:32:43;99710.81;;;2.98;92.39
69257;BME280;56376;53.356;-1.748;2023-04-27T01:35:09;99704.78;;;2.96;92.88
69257;BME280;56376;53.356;-1.748;2023-04-27T01:37:35;99714.25;;;2.91;92.97
69257;BME280;56376;53.356;-1.748;2023-04-27T01:40:02;99726.31;;;2.91;92.95
69257;BME280;56376;53.356;-1.748;2023-04-27T01:42:29;99724.59;;;2.88;93.37
69257;BME280;56376;53.356;-1.748;2023-04-27T01:44:55;99731.47;;;2.85;93.66
69257;BME280;56376;53.356;-1.748;2023-04-27T01:47:20;99722.88;;;2.81;94.29
69257;BME280;56376;53.356;-1.748;2023-04-27T01:49:46;99725.47;;;2.76;94.40
69257;BME280;56376;53.356;-1.748;2023-04-27T01:52:11;99740.06;;;2.79;93.89
69257;BME280;56376;53.356;-1.748;2023-04-27T01:54:36;99736.63;;;2.74;93.90
69257;BME280;56376;53.356;-1.748;2023-04-27T01:57:02;99733.22;;;2.70;93.89
69257;BME280;56376;53.356;-1.748;2023-04-27T01:59:27;99722.91;;;2.69;93.57
69257;BME280;56376;53.356;-1.748;2023-04-27T02:01:53;99733.22;;;2.73;93.97
69257;BME280;56376;53.356;-1.748;2023-04-27T02:04:19;99741.81;;;2.69;93.92
69257;BME280;56376;53.356;-1.748;2023-04-27T02:06:45;99739.25;;;2.68;93.46
69257;BME280;56376;53.356;-1.748;2023-04-27T02:09:10;99738.38;;;2.63;94.15
69257;BME280;56376;53.356;-1.748;2023-04-27T02:11:36;99733.22;;;2.58;94.20
69257;BME280;56376;53.356;-1.748;2023-04-27T02:14:02;99730.66;;;2.55;94.56
69257;BME280;56376;53.356;-1.748;2023-04-27T02:16:27;99734.97;;;2.57;94.62
69257;BME280;56376;53.356;-1.748;2023-04-27T02:18:53;99742.69;;;2.56;94.94
69257;BME280;56376;53.356;-1.748;2023-04-27T02:21:18;99737.53;;;2.56;95.11
69257;BME280;56376;53.356;-1.748;2023-04-27T02:23:44;99734.06;;;2.54;95.46
69257;BME280;56376;53.356;-1.748;2023-04-27T02:26:19;99730.66;;;2.55;95.79
69257;BME280;56376;53.356;-1.748;2023-04-27T02:28:46;99722.91;;;2.56;95.94
69257;BME280;56376;53.356;-1.748;2023-04-27T02:31:12;99728.91;;;2.57;96.06
69257;BME280;56376;53.356;-1.748;2023-04-27T02:33:39;99714.31;;;2.51;96.94
69257;BME280;56376;53.356;-1.748;2023-04-27T02:36:06;99721.19;;;2.54;97.16
69257;BME280;56376;53.356;-1.748;2023-04-27T02:38:31;99725.47;;;2.56;97.10
69257;BME280;56376;53.356;-1.748;2023-04-27T02:40:57;99726.34;;;2.55;97.12
69257;BME280;56376;53.356;-1.748;2023-04-27T02:43:22;99712.59;;;2.49;97.15
69257;BME280;56376;53.356;-1.748;2023-04-27T02:45:47;99712.59;;;2.49;97.10
69257;BME280;56376;53.356;-1.748;2023-04-27T02:48:13;99716.91;;;2.48;97.53
69257;BME280;56376;53.356;-1.748;2023-04-27T02:50:42;99708.31;;;2.48;97.48
69257;BME280;56376;53.356;-1.748;2023-04-27T02:53:09;99713.47;;;2.46;97.33
69257;BME280;56376;53.356;-1.748;2023-04-27T02:55:34;99710.88;;;2.46;97.26
69257;BME280;56376;53.356;-1.748;2023-04-27T02:58:00;99699.69;;;2.44;97.31
69257;BME280;56376;53.356;-1.748;2023-04-27T03:00:25;99704.00;;;2.44;97.62
69257;BME280;56376;53.356;-1.748;2023-04-27T03:02:51;99696.28;;;2.44;98.32
69257;BME280;56376;53.356;-1.748;2023-04-27T03:05:16;99684.22;;;2.44;98.24
69257;BME280;56376;53.356;-1.748;2023-04-27T03:07:42;99695.41;;;2.42;98.15
69257;BME280;56376;53.356;-1.748;2023-04-27T03:10:07;99695.41;;;2.43;98.40
69257;BME280;56376;53.356;-1.748;2023-04-27T03:12:33;99693.72;;;2.42;99.06
69257;BME280;56376;53.356;-1.748;2023-04-27T03:14:58;99687.69;;;2.43;99.38
69257;BME280;56376;53.356;-1.748;2023-04-27T03:17:25;99689.41;;;2.46;100.00
69257;BME280;56376;53.356;-1.748;2023-04-27T03:19:51;99673.09;;;2.42;100.00
69257;BME280;56376;53.356;-1.748;2023-04-27T03:22:16;99685.09;;;2.43;100.00
69257;BME280;56376;53.356;-1.748;2023-04-27T03:24:42;99691.13;;;2.42;100.00
69257;BME280;56376;53.356;-1.748;2023-04-27T03:27:07;99670.50;;;2.42;100.00
69257;BME280;56376;53.356;-1.748;2023-04-27T03:29:33;99668.78;;;2.41;100.00
69257;BME280;56376;53.356;-1.748;2023-04-27T03:31:58;99663.59;;;2.44;100.00
69257;BME280;56376;53.356;-1.748;2023-04-27T03:34:23;99659.31;;;2.46;100.00
69257;BME280;56376;53.356;-1.748;2023-04-27T03:36:49;99674.78;;;2.48;100.00
69257;BME280;56376;53.356;-1.748;2023-04-27T03:39:15;99683.38;;;2.48;100.00
69257;BME280;56376;53.356;-1.748;2023-04-27T03:41:40;99667.91;;;2.44;100.00
69257;BME280;56376;53.356;-1.748;2023-04-27T03:44:06;99668.75;;;2.44;100.00
69257;BME280;56376;53.356;-1.748;2023-04-27T03:46:31;99663.59;;;2.49;100.00
69257;BME280;56376;53.356;-1.748;2023-04-27T03:48:57;99655.00;;;2.48;100.00
69257;BME280;56376;53.356;-1.748;2023-04-27T03:51:22;99665.34;;;2.50;100.00
69257;BME280;56376;53.356;-1.748;2023-04-27T03:53:47;99659.31;;;2.46;100.00
69257;BME280;56376;53.356;-1.748;2023-04-27T03:56:13;99668.75;;;2.52;100.00
69257;BME280;56376;53.356;-1.748;2023-04-27T03:58:38;99664.47;;;2.52;100.00
69257;BME280;56376;53.356;-1.748;2023-04-27T04:01:03;99647.25;;;2.51;100.00
69257;BME280;56376;53.356;-1.748;2023-04-27T04:03:29;99646.44;;;2.52;100.00
69257;BME280;56376;53.356;-1.748;2023-04-27T04:05:54;99642.97;;;2.50;100.00
69257;BME280;56376;53.356;-1.748;2023-04-27T04:08:20;99644.72;;;2.50;100.00
69257;BME280;56376;53.356;-1.748;2023-04-27T04:10:45;99636.97;;;2.47;100.00
69257;BME280;56376;53.356;-1.748;2023-04-27T04:13:11;99641.28;;;2.45;100.00
69257;BME280;56376;53.356;-1.748;2023-04-27T04:15:36;99643.84;;;2.46;100.00
69257;BME280;56376;53.356;-1.748;2023-04-27T04:18:02;99643.84;;;2.43;100.00
69257;BME280;56376;53.356;-1.748;2023-04-27T04:20:27;99649.84;;;2.44;100.00
69257;BME280;56376;53.356;-1.748;2023-04-27T04:22:53;99644.69;;;2.44;100.00
69257;BME280;56376;53.356;-1.748;2023-04-27T04:25:18;99638.69;;;2.43;100.00
69257;BME280;56376;53.356;-1.748;2023-04-27T04:27:45;99638.69;;;2.42;100.00
69257;BME280;56376;53.356;-1.748;2023-04-27T04:30:12;99647.28;;;2.44;100.00
69257;BME280;56376;53.356;-1.748;2023-04-27T04:32:38;99642.16;;;2.42;100.00
69257;BME280;56376;53.356;-1.748;2023-04-27T04:35:04;99636.97;;;2.41;100.00
69257;BME280;56376;53.356;-1.748;2023-04-27T04:37:32;99637.84;;;2.46;100.00
69257;BME280;56376;53.356;-1.748;2023-04-27T04:39:57;99642.13;;;2.48;100.00
69257;BME280;56376;53.356;-1.748;2023-04-27T04:42:23;99642.97;;;2.52;100.00
69257;BME280;56376;53.356;-1.748;2023-04-27T04:44:48;99633.53;;;2.52;100.00
69257;BME280;56376;53.356;-1.748;2023-04-27T04:47:13;99633.53;;;2.52;100.00
69257;BME280;56376;53.356;-1.748;2023-04-27T04:49:39;99636.09;;;2.58;100.00
69257;BME280;56376;53.356;-1.748;2023-04-27T04:52:04;99636.09;;;2.60;100.00
69257;BME280;56376;53.356;-1.748;2023-04-27T04:54:30;99635.22;;;2.59;100.00
69257;BME280;56376;53.356;-1.748;2023-04-27T04:56:55;99640.38;;;2.63;100.00
69257;BME280;56376;53.356;-1.748;2023-04-27T04:59:23;99636.94;;;2.65;100.00
69257;BME280;56376;53.356;-1.748;2023-04-27T05:01:48;99648.13;;;2.67;100.00
69257;BME280;56376;53.356;-1.748;2023-04-27T05:04:14;99645.53;;;2.70;100.00
69257;BME280;56376;53.356;-1.748;2023-04-27T05:06:39;99645.50;;;2.72;100.00
69257;BME280;56376;53.356;-1.748;2023-04-27T05:09:04;99636.91;;;2.74;100.00
69257;BME280;56376;53.356;-1.748;2023-04-27T05:11:33;99639.47;;;2.74;100.00
69257;BME280;56376;53.356;-1.748;2023-04-27T05:13:58;99649.78;;;2.74;100.00
69257;BME280;56376;53.356;-1.748;2023-04-27T05:16:23;99637.78;;;2.69;100.00
69257;BME280;56376;53.356;-1.748;2023-04-27T05:18:50;99644.66;;;2.70;100.00
69257;BME280;56376;53.356;-1.748;2023-04-27T05:21:16;99643.78;;;2.71;100.00
69257;BME280;56376;53.356;-1.748;2023-04-27T05:23:45;99656.69;;;2.75;100.00
69257;BME280;56376;53.356;-1.748;2023-04-27T05:26:12;99650.66;;;2.76;100.00
69257;BME280;56376;53.356;-1.748;2023-04-27T05:28:38;99666.13;;;2.78;100.00
69257;BME280;56376;53.356;-1.748;2023-04-27T05:31:03;99660.13;;;2.77;100.00
69257;BME280;56376;53.356;-1.748;2023-04-27T05:33:28;99651.50;;;2.78;100.00
69257;BME280;56376;53.356;-1.748;2023-04-27T05:35:54;99652.38;;;2.79;100.00
69257;BME280;56376;53.356;-1.748;2023-04-27T05:38:19;99648.06;;;2.83;100.00
69257;BME280;56376;53.356;-1.748;2023-04-27T05:40:45;99645.47;;;2.84;100.00
69257;BME280;56376;53.356;-1.748;2023-04-27T05:43:10;99645.44;;;2.87;100.00
69257;BME280;56376;53.356;-1.748;2023-04-27T05:45:38;99632.56;;;2.90;100.00
69257;BME280;56376;53.356;-1.748;2023-04-27T05:48:04;99635.97;;;2.94;100.00
69257;BME280;56376;53.356;-1.748;2023-04-27T05:50:29;99636.84;;;2.97;100.00
69257;BME280;56376;53.356;-1.748;2023-04-27T05:52:54;99631.66;;;3.00;100.00
69257;BME280;56376;53.356;-1.748;2023-04-27T05:55:20;99631.63;;;3.02;100.00
69257;BME280;56376;53.356;-1.748;2023-04-27T05:57:46;99635.94;;;3.06;100.00
69257;BME280;56376;53.356;-1.748;2023-04-27T06:00:12;99626.50;;;3.05;100.00
69257;BME280;56376;53.356;-1.748;2023-04-27T06:02:39;99629.03;;;3.10;100.00
69257;BME280;56376;53.356;-1.748;2023-04-27T06:05:05;99635.03;;;3.12;100.00
69257;BME280;56376;53.356;-1.748;2023-04-27T06:07:31;99622.13;;;3.16;100.00
69257;BME280;56376;53.356;-1.748;2023-04-27T06:09:56;99623.81;;;3.22;100.00
69257;BME280;56376;53.356;-1.748;2023-04-27T06:12:21;99617.78;;;3.24;100.00
69257;BME280;56376;53.356;-1.748;2023-04-27T06:14:47;99616.06;;;3.28;100.00
69257;BME280;56376;53.356;-1.748;2023-04-27T06:17:12;99622.03;;;3.32;100.00
69257;BME280;56376;53.356;-1.748;2023-04-27T06:19:37;99604.00;;;3.27;100.00
69257;BME280;56376;53.356;-1.748;2023-04-27T06:22:03;99604.81;;;3.32;100.00
69257;BME280;56376;53.356;-1.748;2023-04-27T06:24:28;99616.84;;;3.39;100.00
69257;BME280;56376;53.356;-1.748;2023-04-27T06:26:54;99606.50;;;3.39;100.00
69257;BME280;56376;53.356;-1.748;2023-04-27T06:29:19;99611.63;;;3.49;100.00
69257;BME280;56376;53.356;-1.748;2023-04-27T06:31:44;99608.13;;;3.53;100.00
69257;BME280;56376;53.356;-1.748;2023-04-27T06:34:11;99614.13;;;3.58;100.00
69257;BME280;56376;53.356;-1.748;2023-04-27T06:36:36;99606.38;;;3.59;100.00
69257;BME280;56376;53.356;-1.748;2023-04-27T06:39:02;99615.84;;;3.63;100.00
69257;BME280;56376;53.356;-1.748;2023-04-27T06:41:27;99602.94;;;3.59;100.00
69257;BME280;56376;53.356;-1.748;2023-04-27T06:43:53;99614.03;;;3.70;100.00
69257;BME280;56376;53.356;-1.748;2023-04-27T06:46:19;99618.34;;;3.74;100.00
69257;BME280;56376;53.356;-1.748;2023-04-27T06:48:44;99605.41;;;3.74;100.00
69257;BME280;56376;53.356;-1.748;2023-04-27T06:51:11;99619.13;;;3.82;100.00
69257;BME280;56376;53.356;-1.748;2023-04-27T06:53:37;99613.94;;;3.87;100.00
69257;BME280;56376;53.356;-1.748;2023-04-27T06:56:03;99602.72;;;3.91;100.00
69257;BME280;56376;53.356;-1.748;2023-04-27T06:58:28;99600.06;;;3.97;100.00
69257;BME280;56376;53.356;-1.748;2023-04-27T07:00:54;99603.47;;;4.04;100.00
69257;BME280;56376;53.356;-1.748;2023-04-27T07:03:20;99592.25;;;4.06;100.00
69257;BME280;56376;53.356;-1.748;2023-04-27T07:05:46;99594.75;;;4.12;100.00
69257;BME280;56376;53.356;-1.748;2023-04-27T07:08:12;99589.56;;;4.19;100.00
69257;BME280;56376;53.356;-1.748;2023-04-27T07:10:37;99599.81;;;4.26;100.00
69257;BME280;56376;53.356;-1.748;2023-04-27T07:13:03;99601.47;;;4.30;100.00
69257;BME280;56376;53.356;-1.748;2023-04-27T07:15:29;99596.31;;;4.32;100.00
69257;BME280;56376;53.356;-1.748;2023-04-27T07:18:01;99604.00;;;4.41;100.00
69257;BME280;56376;53.356;-1.748;2023-04-27T07:20:32;99597.88;;;4.47;100.00
69257;BME280;56376;53.356;-1.748;2023-04-27T07:22:58;99594.38;;;4.54;100.00
69257;BME280;56376;53.356;-1.748;2023-04-27T07:25:23;99584.78;;;4.62;100.00
69257;BME280;56376;53.356;-1.748;2023-04-27T07:27:49;99586.38;;;4.72;100.00
69257;BME280;56376;53.356;-1.748;2023-04-27T07:30:15;99591.44;;;4.83;100.00
69257;BME280;56376;53.356;-1.748;2023-04-27T07:32:42;99592.19;;;4.94;100.00
69257;BME280;56376;53.356;-1.748;2023-04-27T07:35:07;99602.38;;;5.04;100.00
69257;BME280;56376;53.356;-1.748;2023-04-27T07:37:36;99595.41;;;5.10;100.00
69257;BME280;56376;53.356;-1.748;2023-04-27T07:40:03;99603.94;;;5.18;100.00
69257;BME280;56376;53.356;-1.748;2023-04-27T07:42:36;99601.28;;;5.25;100.00
69257;BME280;56376;53.356;-1.748;2023-04-27T07:45:04;99603.00;;;5.24;100.00
69257;BME280;56376;53.356;-1.748;2023-04-27T07:47:29;99603.78;;;5.31;100.00
69257;BME280;56376;53.356;-1.748;2023-04-27T07:49:54;99599.41;;;5.34;100.00
69257;BME280;56376;53.356;-1.748;2023-04-27T07:52:20;99599.31;;;5.40;100.00
69257;BME280;56376;53.356;-1.748;2023-04-27T07:54:46;99607.03;;;5.45;100.00
69257;BME280;56376;53.356;-1.748;2023-04-27T07:57:11;99607.84;;;5.49;100.00
69257;BME280;56376;53.356;-1.748;2023-04-27T07:59:37;99600.84;;;5.55;100.00
69257;BME280;56376;53.356;-1.748;2023-04-27T08:02:03;99599.88;;;5.61;100.00
69257;BME280;56376;53.356;-1.748;2023-04-27T08:04:28;99598.06;;;5.68;100.00
69257;BME280;56376;53.356;-1.748;2023-04-27T08:06:53;99600.53;;;5.75;100.00
69257;BME280;56376;53.356;-1.748;2023-04-27T08:09:19;99577.94;;;5.82;100.00
69257;BME280;56376;53.356;-1.748;2023-04-27T08:11:44;99577.72;;;5.99;100.00
69257;BME280;56376;53.356;-1.748;2023-04-27T08:14:10;99568.03;;;6.09;100.00
69257;BME280;56376;53.356;-1.748;2023-04-27T08:16:39;99560.91;;;6.21;100.00
69257;BME280;56376;53.356;-1.748;2023-04-27T08:19:06;99552.91;;;6.32;100.00
69257;BME280;56376;53.356;-1.748;2023-04-27T08:21:31;99547.56;;;6.41;100.00
69257;BME280;56376;53.356;-1.748;2023-04-27T08:23:57;99549.16;;;6.48;100.00
69257;BME280;56376;53.356;-1.748;2023-04-27T08:26:22;99545.50;;;6.59;100.00
69257;BME280;56376;53.356;-1.748;2023-04-27T08:28:48;99548.72;;;6.70;100.00
69257;BME280;56376;53.356;-1.748;2023-04-27T08:31:14;99550.25;;;6.80;100.00
69257;BME280;56376;53.356;-1.748;2023-04-27T08:33:39;99535.38;;;6.88;100.00
69257;BME280;56376;53.356;-1.748;2023-04-27T08:36:06;99528.28;;;6.97;100.00
69257;BME280;56376;53.356;-1.748;2023-04-27T08:38:33;99534.97;;;7.07;100.00
69257;BME280;56376;53.356;-1.748;2023-04-27T08:40:59;99529.63;;;7.13;100.00
69257;BME280;56376;53.356;-1.748;2023-04-27T08:43:25;99520.00;;;7.18;100.00
69257;BME280;56376;53.356;-1.748;2023-04-27T08:45:50;99510.38;;;7.23;100.00
69257;BME280;56376;53.356;-1.748;2023-04-27T08:48:17;99510.16;;;7.32;100.00
69257;BME280;56376;53.356;-1.748;2023-04-27T08:50:43;99508.28;;;7.39;100.00
69257;BME280;56376;53.356;-1.748;2023-04-27T08:53:19;99495.97;;;7.46;100.00
69257;BME280;56376;53.356;-1.748;2023-04-27T08:55:46;99500.19;;;7.51;100.00
69257;BME280;56376;53.356;-1.748;2023-04-27T08:58:12;99495.72;;;7.56;100.00
69257;BME280;56376;53.356;-1.748;2023-04-27T09:00:41;99501.66;;;7.62;100.00
69257;BME280;56376;53.356;-1.748;2023-04-27T09:03:17;99498.03;;;7.69;100.00
69257;BME280;56376;53.356;-1.748;2023-04-27T09:05:47;99483.94;;;7.76;100.00
69257;BME280;56376;53.356;-1.748;2023-04-27T09:08:13;99494.22;;;7.82;100.00
69257;BME280;56376;53.356;-1.748;2023-04-27T09:10:49;99485.38;;;7.89;100.00
69257;BME280;56376;53.356;-1.748;2023-04-27T09:13:15;99484.31;;;7.96;98.95
69257;BME280;56376;53.356;-1.748;2023-04-27T09:15:49;99484.22;;;7.99;98.76
69257;BME280;56376;53.356;-1.748;2023-04-27T09:20:47;99490.66;;;8.19;97.48
69257;BME280;56376;53.356;-1.748;2023-04-27T09:23:24;99492.16;;;8.26;97.53
69257;BME280;56376;53.356;-1.748;2023-04-27T09:25:57;99494.56;;;8.34;96.71
69257;BME280;56376;53.356;-1.748;2023-04-27T09:28:24;99488.31;;;8.41;96.45
69257;BME280;56376;53.356;-1.748;2023-04-27T09:30:56;99486.22;;;8.54;94.84
69257;BME280;56376;53.356;-1.748;2023-04-27T09:33:27;99486.88;;;8.62;94.50
69257;BME280;56376;53.356;-1.748;2023-04-27T09:35:53;99482.22;;;8.72;94.00
69257;BME280;56376;53.356;-1.748;2023-04-27T09:38:20;99487.19;;;8.81;93.95
69257;BME280;56376;53.356;-1.748;2023-04-27T09:40:46;99492.97;;;8.91;93.42
69257;BME280;56376;53.356;-1.748;2023-04-27T09:43:13;99480.66;;;8.96;92.13
69257;BME280;56376;53.356;-1.748;2023-04-27T09:45:38;99485.66;;;9.02;91.88
69257;BME280;56376;53.356;-1.748;2023-04-27T09:48:05;99481.13;;;9.08;91.69
69257;BME280;56376;53.356;-1.748;2023-04-27T09:50:38;99470.47;;;9.16;90.59
69257;BME280;56376;53.356;-1.748;2023-04-27T09:53:31;99472.09;;;9.20;90.25
69257;BME280;56376;53.356;-1.748;2023-04-27T09:56:01;99479.81;;;9.23;90.48
69257;BME280;56376;53.356;-1.748;2023-04-27T10:07:03;99465.63;;;9.32;88.27
69257;BME280;56376;53.356;-1.748;2023-04-27T10:09:39;99467.22;;;9.36;88.23
69257;BME280;56376;53.356;-1.748;2023-04-27T10:12:19;99461.97;;;9.38;89.08
69257;BME280;56376;53.356;-1.748;2023-04-27T10:14:49;99467.00;;;9.42;89.35
69257;BME280;56376;53.356;-1.748;2023-04-27T10:17:15;99453.91;;;9.45;89.17
69257;BME280;56376;53.356;-1.748;2023-04-27T10:19:51;99458.09;;;9.49;87.97
69257;BME280;56376;53.356;-1.748;2023-04-27T10:22:19;99464.97;;;9.52;87.45
69257;BME280;56376;53.356;-1.748;2023-04-27T10:24:48;99464.13;;;9.51;86.33
69257;BME280;56376;53.356;-1.748;2023-04-27T10:27:16;99467.53;;;9.53;86.33
69257;BME280;56376;53.356;-1.748;2023-04-27T10:29:45;99458.91;;;9.51;86.10
69257;BME280;56376;53.356;-1.748;2023-04-27T10:32:24;99464.81;;;9.57;85.70
69257;BME280;56376;53.356;-1.748;2023-04-27T10:35:10;99463.94;;;9.58;85.81
69257;BME280;56376;53.356;-1.748;2023-04-27T10:37:40;99462.91;;;9.62;85.60
69257;BME280;56376;53.356;-1.748;2023-04-27T10:40:07;99459.41;;;9.63;85.08
69257;BME280;56376;53.356;-1.748;2023-04-27T10:42:35;99452.31;;;9.66;85.04
69257;BME280;56376;53.356;-1.748;2023-04-27T10:45:01;99440.03;;;9.70;84.07
69257;BME280;56376;53.356;-1.748;2023-04-27T10:47:37;99436.47;;;9.72;84.22
69257;BME280;56376;53.356;-1.748;2023-04-27T10:50:04;99442.47;;;9.74;82.94
69257;BME280;56376;53.356;-1.748;2023-04-27T10:52:30;99431.09;;;9.77;82.07
69257;BME280;56376;53.356;-1.748;2023-04-27T10:54:55;99427.63;;;9.77;81.24
69257;BME280;56376;53.356;-1.748;2023-04-27T10:57:21;99424.28;;;9.73;81.52
69257;BME280;56376;53.356;-1.748;2023-04-27T10:59:52;99423.25;;;9.77;81.69
69257;BME280;56376;53.356;-1.748;2023-04-27T11:02:27;99422.41;;;9.77;81.36
69257;BME280;56376;53.356;-1.748;2023-04-27T11:04:53;99424.19;;;9.76;81.12
69257;BME280;56376;53.356;-1.748;2023-04-27T11:07:25;99415.44;;;9.77;80.77
69257;BME280;56376;53.356;-1.748;2023-04-27T11:09:51;99411.13;;;9.76;80.46
69257;BME280;56376;53.356;-1.748;2023-04-27T11:12:17;99412.78;;;9.79;80.28
69257;BME280;56376;53.356;-1.748;2023-04-27T11:14:43;99414.44;;;9.81;78.93
69257;BME280;56376;53.356;-1.748;2023-04-27T11:17:08;99410.06;;;9.82;78.85
69257;BME280;56376;53.356;-1.748;2023-04-27T11:19:46;99398.81;;;9.80;78.24
69257;BME280;56376;53.356;-1.748;2023-04-27T11:22:13;99389.19;;;9.82;78.78
69257;BME280;56376;53.356;-1.748;2023-04-27T11:24:51;99387.38;;;9.84;79.29
69257;BME280;56376;53.356;-1.748;2023-04-27T11:27:17;99380.13;;;9.92;78.19
69257;BME280;56376;53.356;-1.748;2023-04-27T11:29:42;99386.09;;;9.95;77.64
69257;BME280;56376;53.356;-1.748;2023-04-27T11:32:20;99391.22;;;9.99;77.57
69257;BME280;56376;53.356;-1.748;2023-04-27T11:34:50;99368.63;;;9.97;76.25
69257;BME280;56376;53.356;-1.748;2023-04-27T11:37:24;99382.47;;;10.00;76.04
69257;BME280;56376;53.356;-1.748;2023-04-27T11:39:50;99385.03;;;10.01;76.77
69257;BME280;56376;53.356;-1.748;2023-04-27T11:42:20;99380.53;;;10.05;77.68
69257;BME280;56376;53.356;-1.748;2023-04-27T11:44:57;99377.72;;;10.11;76.63
69257;BME280;56376;53.356;-1.748;2023-04-27T11:47:24;99376.81;;;10.12;76.14
69257;BME280;56376;53.356;-1.748;2023-04-27T11:49:54;99376.81;;;10.12;75.80
69257;BME280;56376;53.356;-1.748;2023-04-27T11:52:21;99375.03;;;10.12;75.99
69257;BME280;56376;53.356;-1.748;2023-04-27T11:54:48;99368.97;;;10.12;75.63
69257;BME280;56376;53.356;-1.748;2023-04-27T11:57:13;99361.97;;;10.12;76.15
69257;BME280;56376;53.356;-1.748;2023-04-27T11:59:39;99350.66;;;10.13;76.26
69257;BME280;56376;53.356;-1.748;2023-04-27T12:02:04;99343.63;;;10.15;75.24
69257;BME280;56376;53.356;-1.748;2023-04-27T12:04:29;99348.78;;;10.17;75.38
69257;BME280;56376;53.356;-1.748;2023-04-27T12:06:56;99335.69;;;10.18;74.81
69257;BME280;56376;53.356;-1.748;2023-04-27T12:09:21;99346.03;;;10.20;75.17
69257;BME280;56376;53.356;-1.748;2023-04-27T12:11:46;99341.63;;;10.22;73.61
69257;BME280;56376;53.356;-1.748;2023-04-27T12:14:12;99330.44;;;10.18;73.67
69257;BME280;56376;53.356;-1.748;2023-04-27T12:16:37;99339.97;;;10.19;74.19
69257;BME280;56376;53.356;-1.748;2023-04-27T12:19:03;99344.31;;;10.21;74.55
69257;BME280;56376;53.356;-1.748;2023-04-27T12:21:29;99345.19;;;10.19;74.44
69257;BME280;56376;53.356;-1.748;2023-04-27T12:23:56;99332.97;;;10.20;74.37
69257;BME280;56376;53.356;-1.748;2023-04-27T12:26:21;99339.13;;;10.19;74.57
69257;BME280;56376;53.356;-1.748;2023-04-27T12:28:47;99332.22;;;10.18;73.88
69257;BME280;56376;53.356;-1.748;2023-04-27T12:31:14;99337.44;;;10.18;73.52
69257;BME280;56376;53.356;-1.748;2023-04-27T12:33:41;99335.72;;;10.17;73.73
69257;BME280;56376;53.356;-1.748;2023-04-27T12:36:06;99332.25;;;10.16;74.45
69257;BME280;56376;53.356;-1.748;2023-04-27T12:38:32;99329.66;;;10.16;74.25
69257;BME280;56376;53.356;-1.748;2023-04-27T12:40:59;99328.72;;;10.17;73.02
69257;BME280;56376;53.356;-1.748;2023-04-27T12:43:26;99329.69;;;10.15;71.47
69257;BME280;56376;53.356;-1.748;2023-04-27T12:45:52;99335.88;;;10.12;72.12
69257;BME280;56376;53.356;-1.748;2023-04-27T12:48:17;99335.88;;;10.12;72.92
69257;BME280;56376;53.356;-1.748;2023-04-27T12:50:43;99328.06;;;10.12;72.22
69257;BME280;56376;53.356;-1.748;2023-04-27T12:53:08;99329.94;;;10.09;73.08
69257;BME280;56376;53.356;-1.748;2023-04-27T12:55:34;99342.81;;;10.13;72.28
69257;BME280;56376;53.356;-1.748;2023-04-27T12:58:01;99329.81;;;10.12;71.92
69257;BME280;56376;53.356;-1.748;2023-04-27T13:00:26;99323.94;;;10.07;72.28
69257;BME280;56376;53.356;-1.748;2023-04-27T13:02:53;99324.84;;;10.06;72.98